Observations for Trim Market St
| Time | AQI | Temp °C | Hum % | Pres Pa | CO μg/m³ | H₂S μg/m³ | NO μg/m³ | NO₂ μg/m³ | O₃ μg/m³ | SO₂ μg/m³ | PM1 μg/m³ | PM2.5 μg/m³ | PM10 μg/m³ |
|---|---|---|---|---|---|---|---|---|---|---|---|---|---|
| Wednesday 8 July 2026 | |||||||||||||
| 20:41 | 1 | 28.5 | 51 | 57,393 | 0 | 12.7 | 0 | 15.56 | 19.15 | 0 | 2.85 | 5.99 | 9 |
| 20:40 | 1 | 28.6 | 51 | 57,282 | 0 | 12.43 | 0 | 14.02 | 9.92 | 0 | 2.14 | 4.45 | 5.31 |
| 20:39 | 1 | 28.7 | 51 | 57,167 | 0 | 12.99 | 0 | 16.39 | 19.06 | 0 | 0.71 | 3.94 | 4.58 |
| 20:38 | 1 | 28.7 | 51 | 57,029 | 0 | 12.29 | 0 | 14.12 | 16.05 | 0 | 1.43 | 4.46 | 5.31 |
| 20:33 | 1 | 29 | 50 | 56,740 | 0 | 13.96 | 0 | 17.7 | 11.74 | 0 | 2.14 | 4.49 | 5.3 |
| 20:32 | 1 | 29 | 50 | 56,644 | 0 | 15.03 | 0 | 18.62 | 15.59 | 0 | 2.14 | 5.01 | 6.04 |
| 20:27 | 1 | 29.3 | 50 | 56,115 | 0 | 13.12 | 0 | 17.43 | 15.02 | 0 | 2.14 | 5.05 | 6.03 |
| 20:26 | 1 | 29.4 | 49 | 56,034 | 0 | 13.01 | 0 | 14.63 | 13.58 | 0 | 1.43 | 4.03 | 4.53 |
| 20:20 | 1 | 29.8 | 48 | 55,762 | 0 | 12.35 | 0 | 15.34 | 21.67 | 0 | 2.85 | 5.11 | 6.77 |
| 20:19 | 1 | 29.8 | 48 | 55,785 | 0 | 12.24 | 0 | 15.45 | 18.12 | 0 | 2.85 | 5.12 | 6.77 |
| 20:18 | 1 | 29.9 | 48 | 55,827 | 0 | 12.58 | 0 | 14.24 | 10.45 | 0 | 2.14 | 5.12 | 6.01 |
| 20:17 | 1 | 30 | 48 | 55,903 | 0 | 16.97 | 0 | 16.42 | 16.23 | 0 | 2.85 | 5.13 | 6.77 |
| 20:16 | 1 | 30 | 48 | 56,011 | 2.03 | 28.41 | 0 | 15.32 | 12.67 | 0 | 2.14 | 4.09 | 5.25 |
| 20:14 | 1 | 30.1 | 48 | 56,381 | 0 | 13.11 | 0 | 15.73 | 19.59 | 0 | 1.43 | 4.62 | 5.25 |
| 20:13 | 1 | 30.1 | 47 | 56,689 | 0 | 12.22 | 0 | 14.26 | 13.28 | 0 | 1.43 | 4.64 | 6.77 |
| 20:12 | 1 | 30.2 | 47 | 57,016 | 0 | 14.07 | 0 | 15.26 | 18.1 | 0 | 2.14 | 5.17 | 6 |
| 20:10 | 1 | 30.3 | 47 | 57,994 | 0 | 14.54 | 0 | 16.68 | 22.96 | 0 | 2.85 | 5.19 | 8.29 |
| 20:09 | 1 | 30.3 | 47 | 58,570 | 0 | 13.6 | 0 | 16.09 | 19.06 | 0 | 2.85 | 5.71 | 6.76 |
| 20:04 | 1 | 30.5 | 46 | 60,410 | 0 | 11.23 | 0 | 14.88 | 19.48 | 0 | 2.14 | 4.69 | 5.22 |
| 20:01 | 1 | 30.7 | 46 | 61,384 | 0 | 7.71 | 0 | 13.3 | 11.27 | 0 | 3.56 | 6.29 | 8.3 |